createdAt,value
2019-06-01T00:00:57.045Z,29.35
2019-06-01T00:03:26.235Z,25.52
2019-06-01T00:05:55.441Z,24.92
2019-06-01T00:08:24.753Z,26.87
2019-06-01T00:10:54.042Z,26.75
2019-06-01T00:13:23.236Z,22.58
2019-06-01T00:15:52.562Z,23.77
2019-06-01T00:18:21.885Z,22.58
2019-06-01T00:20:51.198Z,27.55
2019-06-01T00:23:20.397Z,21.12
2019-06-01T00:25:49.627Z,24.85
2019-06-01T00:28:18.953Z,21.87
2019-06-01T00:30:48.127Z,25.62
2019-06-01T00:33:17.383Z,22.95
2019-06-01T00:35:47.441Z,22.00
2019-06-01T00:38:16.769Z,23.12
2019-06-01T00:40:46.020Z,21.27
2019-06-01T00:43:15.321Z,20.82
2019-06-01T00:45:44.569Z,26.57
2019-06-01T00:48:13.799Z,19.90
2019-06-01T00:50:43.172Z,26.75
2019-06-01T00:53:12.383Z,21.55
2019-06-01T00:55:41.662Z,25.30
2019-06-01T00:58:10.960Z,21.25
2019-06-01T01:00:43.611Z,19.15
2019-06-01T01:03:11.709Z,21.33
2019-06-01T01:05:40.978Z,26.70
2019-06-01T01:08:10.209Z,24.55
2019-06-01T01:10:39.435Z,24.55
2019-06-01T01:13:18.061Z,27.58
2019-06-01T01:15:47.341Z,26.90
2019-06-01T01:18:16.699Z,32.73
2019-06-01T01:20:46.029Z,30.00
2019-06-01T01:23:15.333Z,27.20
2019-06-01T01:25:44.558Z,29.67
2019-06-01T01:28:13.871Z,28.83
2019-06-01T01:30:58.003Z,27.70
2019-06-01T01:33:14.318Z,27.37
2019-06-01T01:35:43.542Z,27.37
2019-06-01T01:38:12.829Z,30.10
2019-06-01T01:40:42.112Z,23.90
2019-06-01T01:43:14.123Z,30.02
2019-06-01T01:45:48.559Z,26.20
2019-06-01T01:48:19.383Z,25.82
2019-06-01T01:50:48.619Z,22.50
2019-06-01T01:53:17.854Z,23.57
2019-06-01T01:55:47.079Z,27.45
2019-06-01T01:58:16.364Z,30.77
2019-06-01T02:00:46.789Z,27.02
2019-06-01T02:03:16.169Z,22.60
2019-06-01T02:05:45.513Z,23.57
2019-06-01T02:08:14.819Z,23.92
2019-06-01T02:10:44.070Z,28.40
2019-06-01T02:13:13.401Z,28.67
2019-06-01T02:15:43.001Z,21.35
2019-06-01T02:18:12.304Z,30.65
2019-06-01T02:20:41.687Z,24.77
2019-06-01T02:23:10.986Z,29.82
2019-06-01T02:25:40.317Z,29.90
2019-06-01T02:28:09.577Z,29.45
2019-06-01T02:30:38.807Z,28.50
2019-06-01T02:33:08.127Z,31.27
2019-06-01T02:35:37.435Z,23.67
2019-06-01T02:38:06.708Z,26.40
2019-06-01T02:40:36.116Z,26.50
2019-06-01T02:43:06.886Z,29.02
2019-06-01T02:45:36.411Z,24.25
2019-06-01T02:48:09.010Z,25.12
2019-06-01T02:50:38.305Z,23.15
2019-06-01T02:53:07.634Z,24.07
2019-06-01T02:55:36.835Z,20.40
2019-06-01T02:58:06.772Z,25.05
2019-06-01T03:01:37.998Z,22.93
2019-06-01T03:04:09.138Z,24.07
2019-06-01T03:06:41.016Z,26.50
2019-06-01T03:09:11.888Z,22.85
2019-06-01T03:11:42.066Z,26.02
2019-06-01T03:14:12.893Z,23.52
2019-06-01T03:16:46.603Z,30.62
2019-06-01T03:19:19.875Z,26.60
2019-06-01T03:21:51.416Z,24.25
2019-06-01T03:24:24.751Z,30.82
2019-06-01T03:26:55.196Z,25.93
2019-06-01T03:29:27.669Z,22.48
2019-06-01T03:32:17.741Z,22.55
2019-06-01T03:34:27.902Z,25.80
2019-06-01T03:36:57.176Z,23.32
2019-06-01T03:39:27.347Z,30.12
2019-06-01T03:41:56.827Z,28.85
2019-06-01T03:44:26.075Z,27.45
2019-06-01T03:46:55.263Z,26.45
2019-06-01T03:49:24.562Z,27.98
2019-06-01T03:51:53.855Z,27.27
2019-06-01T03:54:23.198Z,23.98
2019-06-01T03:56:52.567Z,27.42
2019-06-01T03:59:24.613Z,27.45
2019-06-01T04:01:53.818Z,28.02
2019-06-01T04:04:23.060Z,27.37
2019-06-01T04:06:52.370Z,30.77
2019-06-01T04:09:21.674Z,23.27
2019-06-01T04:11:51.000Z,26.68
2019-06-01T04:14:20.292Z,26.57
2019-06-01T04:16:49.585Z,28.77
2019-06-01T04:19:18.956Z,30.95
2019-06-01T04:21:48.256Z,27.27
2019-06-01T04:24:17.534Z,24.15
2019-06-01T04:26:46.781Z,25.80
2019-06-01T04:29:16.162Z,30.70
2019-06-01T04:31:45.496Z,24.82
2019-06-01T04:34:14.893Z,28.55
2019-06-01T04:36:44.297Z,24.60
2019-06-01T04:39:13.844Z,25.12
2019-06-01T04:41:43.210Z,29.92
2019-06-01T04:44:12.551Z,28.95
2019-06-01T04:46:41.967Z,28.32
2019-06-01T04:49:12.960Z,26.70
2019-06-01T04:51:42.353Z,27.07
2019-06-01T04:54:13.861Z,29.37
2019-06-01T04:56:43.027Z,28.75
2019-06-01T04:59:12.999Z,28.62
2019-06-01T05:01:42.279Z,29.48
2019-06-01T05:04:11.635Z,28.45
2019-06-01T05:06:40.895Z,31.68
2019-06-01T05:09:11.279Z,27.58
2019-06-01T05:11:40.577Z,29.92
2019-06-01T05:14:09.807Z,24.37
2019-06-01T05:16:39.097Z,28.77
2019-06-01T05:19:08.442Z,28.75
2019-06-01T05:21:37.836Z,28.05
2019-06-01T05:24:07.152Z,33.02
2019-06-01T05:26:36.456Z,24.85
2019-06-01T05:29:07.445Z,28.62
2019-06-01T05:31:36.791Z,32.05
2019-06-01T05:34:06.082Z,27.00
2019-06-01T05:36:35.319Z,25.68
2019-06-01T05:39:05.955Z,27.65
2019-06-01T05:41:35.411Z,30.68
2019-06-01T05:44:04.860Z,31.30
2019-06-01T05:46:34.228Z,28.85
2019-06-01T05:49:03.492Z,33.15
2019-06-01T05:51:32.731Z,30.80
2019-06-01T05:54:02.035Z,35.43
2019-06-01T05:56:31.360Z,26.95
2019-06-01T05:59:00.622Z,30.80
2019-06-01T06:01:29.860Z,38.05
2019-06-01T06:03:59.134Z,38.88
2019-06-01T06:06:28.372Z,23.83
2019-06-01T06:08:57.611Z,26.73
2019-06-01T06:11:26.893Z,32.67
2019-06-01T06:13:56.158Z,27.58
2019-06-01T06:16:25.430Z,25.27
2019-06-01T06:18:54.730Z,25.52
2019-06-01T06:21:24.015Z,30.27
2019-06-01T06:23:53.385Z,27.73
2019-06-01T06:26:22.928Z,26.35
2019-06-01T06:28:52.240Z,26.33
2019-06-01T06:31:21.607Z,32.10
2019-06-01T06:33:56.832Z,34.38
2019-06-01T06:36:24.871Z,36.35
2019-06-01T06:38:54.203Z,32.13
2019-06-01T06:41:24.458Z,27.77
2019-06-01T06:43:53.789Z,30.35
2019-06-01T06:46:23.024Z,26.05
2019-06-01T06:48:52.411Z,28.55
2019-06-01T06:51:21.750Z,29.48
2019-06-01T06:53:51.036Z,30.32
2019-06-01T06:56:20.344Z,26.10
2019-06-01T06:58:49.643Z,28.60
2019-06-01T07:01:18.916Z,29.05
2019-06-01T07:03:48.161Z,26.42
2019-06-01T07:06:17.445Z,28.55
2019-06-01T07:08:48.829Z,26.57
2019-06-01T07:11:17.612Z,24.30
2019-06-01T07:13:46.884Z,22.10
2019-06-01T07:16:16.228Z,20.50
2019-06-01T07:18:45.452Z,23.67
2019-06-01T07:21:15.288Z,19.70
2019-06-01T07:23:44.578Z,23.62
2019-06-01T07:26:13.812Z,23.83
2019-06-01T07:28:44.646Z,22.25
2019-06-01T07:31:14.044Z,23.22
2019-06-01T07:33:43.262Z,27.62
2019-06-01T07:36:12.600Z,24.43
2019-06-01T07:38:41.842Z,25.43
2019-06-01T07:41:11.138Z,25.05
2019-06-01T07:43:40.538Z,21.75
2019-06-01T07:46:09.930Z,21.65
2019-06-01T07:48:39.264Z,22.42
2019-06-01T07:51:08.570Z,21.85
2019-06-01T07:53:37.821Z,23.90
2019-06-01T07:56:07.214Z,23.85
2019-06-01T07:58:36.465Z,22.07
2019-06-01T08:01:05.810Z,23.92
2019-06-01T08:03:35.256Z,20.72
2019-06-01T08:06:04.608Z,18.02
2019-06-01T08:08:33.814Z,23.65
2019-06-01T08:11:03.117Z,18.62
2019-06-01T08:13:35.350Z,15.18
2019-06-01T08:16:03.431Z,12.18
2019-06-01T08:18:32.790Z,11.50
2019-06-01T08:21:02.172Z,13.45
2019-06-01T08:23:32.504Z,11.68
2019-06-01T08:26:01.792Z,11.95
2019-06-01T08:28:31.086Z,11.15
2019-06-01T08:31:00.314Z,13.25
2019-06-01T08:33:32.899Z,13.68
2019-06-01T08:36:00.613Z,12.85
2019-06-01T08:38:29.921Z,11.12
2019-06-01T08:40:59.125Z,17.05
2019-06-01T08:43:29.655Z,13.75
2019-06-01T08:46:00.188Z,11.88
2019-06-01T08:48:29.897Z,11.90
2019-06-01T08:50:59.189Z,15.32
2019-06-01T08:53:28.385Z,13.65
2019-06-01T08:55:57.666Z,16.32
2019-06-01T08:58:28.145Z,13.15
2019-06-01T09:00:57.438Z,9.38
2019-06-01T09:03:27.749Z,10.18
2019-06-01T09:05:56.999Z,12.93
2019-06-01T09:08:27.104Z,12.75
2019-06-01T09:10:56.375Z,10.70
2019-06-01T09:13:25.636Z,10.40
2019-06-01T09:15:54.910Z,10.72
2019-06-01T09:18:25.649Z,14.30
2019-06-01T09:20:55.039Z,15.03
2019-06-01T09:23:25.435Z,12.90
2019-06-01T09:25:54.756Z,15.40
2019-06-01T09:28:24.061Z,9.03
2019-06-01T09:30:53.448Z,9.08
2019-06-01T09:33:22.756Z,7.05
2019-06-01T09:35:55.832Z,8.23
2019-06-01T09:38:23.125Z,5.92
2019-06-01T09:40:52.442Z,5.92
2019-06-01T09:43:22.257Z,10.08
2019-06-01T09:45:53.316Z,10.75
2019-06-01T09:48:22.866Z,8.55
2019-06-01T09:50:52.205Z,7.22
2019-06-01T09:53:21.957Z,8.75
2019-06-01T09:55:51.286Z,11.43
2019-06-01T09:58:20.585Z,6.30
2019-06-01T10:00:50.171Z,5.95
2019-06-01T10:03:19.549Z,7.10
2019-06-01T10:06:01.292Z,8.05
2019-06-01T10:08:19.744Z,12.00
2019-06-01T10:10:49.677Z,9.35
2019-06-01T10:13:18.979Z,7.70
2019-06-01T10:15:48.181Z,9.68
2019-06-01T10:18:17.386Z,6.37
2019-06-01T10:20:46.708Z,6.85
2019-06-01T10:23:16.303Z,6.05
2019-06-01T10:25:45.523Z,10.75
2019-06-01T10:28:14.915Z,6.47
2019-06-01T10:30:44.266Z,5.83
2019-06-01T10:33:13.470Z,6.22
2019-06-01T10:35:43.187Z,8.35
2019-06-01T10:38:12.471Z,4.90
2019-06-01T10:40:41.851Z,5.97
2019-06-01T10:43:11.221Z,6.60
2019-06-01T10:45:41.859Z,4.30
2019-06-01T10:48:14.357Z,5.30
2019-06-01T10:50:43.640Z,6.22
2019-06-01T10:53:12.973Z,3.40
2019-06-01T10:55:42.543Z,5.03
2019-06-01T10:58:11.875Z,7.08
2019-06-01T11:00:46.692Z,5.50
2019-06-01T11:03:12.306Z,6.62
2019-06-01T11:05:42.875Z,31.60
2019-06-01T11:08:12.485Z,5.85
2019-06-01T11:10:42.862Z,4.03
2019-06-01T11:13:12.449Z,5.00
2019-06-01T11:15:41.815Z,5.40
2019-06-01T11:18:11.026Z,4.65
2019-06-01T11:20:41.412Z,2.95
2019-06-01T11:23:10.771Z,4.78
2019-06-01T11:25:40.057Z,4.58
2019-06-01T11:28:09.291Z,3.98
2019-06-01T11:30:39.848Z,4.17
2019-06-01T11:33:09.340Z,7.00
2019-06-01T11:35:39.175Z,7.53
2019-06-01T11:38:08.483Z,8.28
2019-06-01T11:40:38.607Z,9.65
2019-06-01T11:43:07.899Z,6.45
2019-06-01T11:45:37.113Z,6.08
2019-06-01T11:48:06.314Z,7.92
2019-06-01T11:50:36.760Z,5.83
2019-06-01T11:53:06.278Z,9.10
2019-06-01T11:55:35.525Z,8.60
2019-06-01T11:58:05.005Z,9.20
2019-06-01T12:00:37.566Z,10.63
2019-06-01T12:03:06.878Z,8.73
2019-06-01T12:05:36.264Z,6.90
2019-06-01T12:08:05.706Z,6.83
2019-06-01T12:10:35.209Z,9.03
2019-06-01T12:13:05.827Z,5.33
2019-06-01T12:15:36.170Z,10.20
2019-06-01T12:18:05.684Z,7.22
2019-06-01T12:20:36.580Z,5.97
2019-06-01T12:23:05.910Z,4.35
2019-06-01T12:25:35.184Z,4.45
2019-06-01T12:28:04.600Z,2.25
2019-06-01T12:30:33.921Z,4.25
2019-06-01T12:33:03.240Z,19.52
2019-06-01T12:35:32.545Z,4.58
2019-06-01T12:38:06.555Z,11.68
2019-06-01T12:40:32.846Z,7.37
2019-06-01T12:43:02.151Z,8.63
2019-06-01T12:45:31.502Z,11.90
2019-06-01T12:48:00.952Z,3.65
2019-06-01T12:50:30.359Z,3.17
2019-06-01T12:52:59.691Z,7.67
2019-06-01T12:55:28.950Z,7.92
2019-06-01T12:57:58.206Z,9.03
2019-06-01T13:00:27.524Z,5.30
2019-06-01T13:03:06.979Z,12.10
2019-06-01T13:05:30.804Z,6.28
2019-06-01T13:08:02.828Z,26.00
2019-06-01T13:10:31.288Z,20.30
2019-06-01T13:13:00.704Z,5.12
2019-06-01T13:15:30.011Z,7.12
2019-06-01T13:17:59.353Z,4.78
2019-06-01T13:20:28.565Z,7.08
2019-06-01T13:22:57.830Z,8.93
2019-06-01T13:25:27.443Z,5.58
2019-06-01T13:27:57.084Z,5.35
2019-06-01T13:30:26.304Z,8.05
2019-06-01T13:32:55.629Z,5.22
2019-06-01T13:35:24.888Z,5.45
2019-06-01T13:38:10.991Z,4.85
2019-06-01T13:40:28.216Z,5.05
2019-06-01T13:42:57.560Z,9.53
2019-06-01T13:45:26.906Z,7.25
2019-06-01T13:47:56.308Z,2.95
2019-06-01T13:50:25.576Z,3.02
2019-06-01T13:52:54.910Z,3.52
2019-06-01T13:55:24.108Z,4.78
2019-06-01T13:57:54.455Z,4.12
2019-06-01T14:00:30.119Z,5.25
2019-06-01T14:02:57.504Z,6.83
2019-06-01T14:05:26.189Z,2.65
2019-06-01T14:07:55.787Z,4.53
2019-06-01T14:10:25.084Z,6.35
2019-06-01T14:12:55.502Z,7.87
2019-06-01T14:15:24.918Z,5.37
2019-06-01T14:17:54.626Z,2.65
2019-06-01T14:20:23.866Z,3.22
2019-06-01T14:22:54.039Z,8.80
2019-06-01T14:25:26.131Z,6.35
2019-06-01T14:27:56.431Z,4.33
2019-06-01T14:30:26.309Z,4.72
2019-06-01T14:32:56.921Z,3.95
2019-06-01T14:35:26.263Z,3.87
2019-06-01T14:37:56.892Z,15.45
2019-06-01T14:40:26.371Z,10.70
2019-06-01T14:42:55.748Z,5.65
2019-06-01T14:45:24.968Z,5.85
2019-06-01T14:47:54.184Z,6.00
2019-06-01T14:50:23.414Z,6.45
2019-06-01T14:52:53.679Z,3.83
2019-06-01T14:55:23.017Z,4.00
2019-06-01T14:57:52.519Z,3.37
2019-06-01T15:00:22.286Z,5.50
2019-06-01T15:02:52.617Z,5.10
2019-06-01T15:05:21.946Z,6.67
2019-06-01T15:07:52.372Z,5.00
2019-06-01T15:10:21.931Z,2.25
2019-06-01T15:12:55.480Z,2.58
2019-06-01T15:15:22.218Z,2.52
2019-06-01T15:17:51.798Z,4.17
2019-06-01T15:20:21.143Z,10.00
2019-06-01T15:22:50.469Z,9.93
2019-06-01T15:25:19.727Z,3.27
2019-06-01T15:27:48.916Z,4.83
2019-06-01T15:30:18.290Z,2.75
2019-06-01T15:32:47.513Z,9.60
2019-06-01T15:35:17.053Z,7.87
2019-06-01T15:37:46.307Z,7.78
2019-06-01T15:40:15.650Z,3.27
2019-06-01T15:42:44.971Z,3.77
2019-06-01T15:45:15.935Z,9.10
2019-06-01T15:47:45.300Z,36.25
2019-06-01T15:50:14.768Z,4.22
2019-06-01T15:52:44.042Z,6.10
2019-06-01T15:55:14.381Z,3.37
2019-06-01T15:57:43.855Z,3.83
2019-06-01T16:00:13.379Z,3.60
2019-06-01T16:02:42.662Z,7.78
2019-06-01T16:05:12.422Z,6.92
2019-06-01T16:07:41.788Z,3.33
2019-06-01T16:10:11.161Z,6.53
2019-06-01T16:12:40.364Z,4.95
2019-06-01T16:15:10.360Z,4.22
2019-06-01T16:17:39.527Z,6.17
2019-06-01T16:20:08.967Z,2.50
2019-06-01T16:22:38.214Z,26.50
2019-06-01T16:25:07.943Z,25.17
2019-06-01T16:27:37.439Z,4.83
2019-06-01T16:30:06.957Z,5.17
2019-06-01T16:32:39.341Z,7.15
2019-06-01T16:35:07.306Z,5.70
2019-06-01T16:37:36.589Z,5.90
2019-06-01T16:40:10.031Z,2.30
2019-06-01T16:42:37.143Z,6.30
2019-06-01T16:45:06.751Z,6.17
2019-06-01T16:47:36.258Z,6.25
2019-06-01T16:50:06.029Z,7.30
2019-06-01T16:52:35.430Z,11.30
2019-06-01T16:55:06.959Z,12.78
2019-06-01T16:57:36.205Z,11.35
2019-06-01T17:00:07.169Z,7.45
2019-06-01T17:02:36.682Z,12.40
2019-06-01T17:05:07.057Z,4.12
2019-06-01T17:07:39.184Z,9.40
2019-06-01T17:10:24.867Z,6.03
2019-06-01T17:12:43.231Z,7.25
2019-06-01T17:15:12.088Z,4.95
2019-06-01T17:17:41.342Z,8.88
2019-06-01T17:20:39.788Z,10.90
2019-06-01T17:23:24.173Z,6.78
2019-06-01T17:25:40.108Z,3.05
2019-06-01T17:28:09.419Z,5.22
2019-06-01T17:30:38.787Z,3.77
2019-06-01T17:33:08.571Z,3.08
2019-06-01T17:35:37.973Z,4.55
2019-06-01T17:38:07.544Z,5.58
2019-06-01T17:40:41.436Z,11.10
2019-06-01T17:43:08.943Z,7.28
2019-06-01T17:45:38.334Z,13.20
2019-06-01T17:48:21.629Z,7.62
2019-06-01T17:50:39.137Z,6.55
2019-06-01T17:53:08.917Z,10.58
2019-06-01T17:55:39.108Z,7.75
2019-06-01T17:58:10.097Z,4.95
2019-06-01T18:00:40.438Z,5.22
2019-06-01T18:03:10.058Z,4.62
2019-06-01T18:05:39.510Z,5.55
2019-06-01T18:08:10.182Z,7.28
2019-06-01T18:10:53.377Z,8.15
2019-06-01T18:13:12.930Z,9.15
2019-06-01T18:15:42.365Z,3.05
2019-06-01T18:18:12.811Z,4.08
2019-06-01T18:20:42.504Z,3.52
2019-06-01T18:23:13.262Z,4.78
2019-06-01T18:25:42.915Z,6.08
2019-06-01T18:28:18.554Z,8.45
2019-06-01T18:30:44.553Z,4.00
2019-06-01T18:33:14.046Z,35.43
2019-06-01T18:35:43.333Z,29.55
2019-06-01T18:38:13.386Z,9.00
2019-06-01T18:40:43.737Z,5.22
2019-06-01T18:43:16.770Z,3.92
2019-06-01T18:45:47.038Z,3.98
2019-06-01T18:48:16.980Z,5.30
2019-06-01T18:50:46.797Z,9.78
2019-06-01T18:53:16.352Z,9.40
2019-06-01T18:55:45.841Z,9.93
2019-06-01T18:58:15.958Z,12.68
2019-06-01T19:00:45.774Z,16.32
2019-06-01T19:03:16.270Z,13.22
2019-06-01T19:05:46.573Z,12.10
2019-06-01T19:08:17.473Z,13.28
2019-06-01T19:10:48.910Z,13.45
2019-06-01T19:13:23.005Z,11.25
2019-06-01T19:15:52.635Z,11.75
2019-06-01T19:18:23.225Z,11.00
2019-06-01T19:20:53.644Z,10.85
2019-06-01T19:23:23.096Z,7.72
2019-06-01T19:25:53.049Z,11.12
2019-06-01T19:28:23.446Z,11.00
2019-06-01T19:30:53.494Z,8.30
2019-06-01T19:33:23.274Z,9.10
2019-06-01T19:35:53.791Z,10.53
2019-06-01T19:38:23.740Z,12.33
2019-06-01T19:40:53.152Z,15.08
2019-06-01T19:43:22.903Z,7.28
2019-06-01T19:45:53.927Z,11.35
2019-06-01T19:48:23.744Z,17.17
2019-06-01T19:50:53.171Z,10.13
2019-06-01T19:53:22.414Z,13.25
2019-06-01T19:55:51.649Z,10.88
2019-06-01T19:58:22.254Z,11.50
2019-06-01T20:00:51.678Z,10.85
2019-06-01T20:03:22.671Z,15.55
2019-06-01T20:05:52.697Z,10.90
2019-06-01T20:08:22.674Z,9.73
2019-06-01T20:10:52.261Z,12.60
2019-06-01T20:13:22.043Z,10.23
2019-06-01T20:15:51.753Z,12.63
2019-06-01T20:18:22.908Z,12.40
2019-06-01T20:20:52.654Z,9.53
2019-06-01T20:23:22.099Z,10.25
2019-06-01T20:25:51.586Z,9.35
2019-06-01T20:28:21.702Z,11.15
2019-06-01T20:30:51.751Z,12.90
2019-06-01T20:33:23.611Z,8.10
2019-06-01T20:35:52.874Z,7.50
2019-06-01T20:38:23.515Z,14.53
2019-06-01T20:40:53.255Z,8.80
2019-06-01T20:43:22.982Z,9.48
2019-06-01T20:45:56.905Z,10.68
2019-06-01T20:48:26.992Z,7.03
2019-06-01T20:50:56.605Z,10.05
2019-06-01T20:53:26.605Z,11.45
2019-06-01T20:55:56.025Z,7.60
2019-06-01T20:58:25.372Z,9.93
2019-06-01T21:00:54.891Z,8.23
2019-06-01T21:03:24.405Z,7.67
2019-06-01T21:05:53.733Z,9.83
2019-06-01T21:08:24.220Z,7.12
2019-06-01T21:10:53.695Z,10.70
2019-06-01T21:13:24.126Z,9.95
2019-06-01T21:15:53.602Z,6.70
2019-06-01T21:18:22.919Z,10.38
2019-06-01T21:20:52.208Z,8.65
2019-06-01T21:23:22.640Z,11.18
2019-06-01T21:25:52.395Z,7.90
2019-06-01T21:28:22.480Z,8.78
2019-06-01T21:30:52.618Z,7.83
2019-06-01T21:33:26.274Z,7.70
2019-06-01T21:35:52.787Z,7.92
2019-06-01T21:38:23.572Z,7.92
2019-06-01T21:40:53.210Z,7.62
2019-06-01T21:43:29.687Z,9.60
2019-06-01T21:45:53.477Z,7.58
2019-06-01T21:48:23.980Z,8.13
2019-06-01T21:50:53.571Z,6.62
2019-06-01T21:53:22.790Z,9.30
2019-06-01T21:55:52.044Z,7.92
2019-06-01T21:58:22.601Z,6.95
2019-06-01T22:00:52.373Z,8.43
2019-06-01T22:03:23.123Z,10.00
2019-06-01T22:05:52.507Z,11.00
2019-06-01T22:08:21.736Z,13.22
2019-06-01T22:10:50.994Z,8.23
2019-06-01T22:13:22.710Z,6.70
2019-06-01T22:15:51.250Z,7.15
2019-06-01T22:18:21.592Z,11.22
2019-06-01T22:20:50.860Z,8.40
2019-06-01T22:23:20.294Z,5.75
2019-06-01T22:25:49.553Z,5.42
2019-06-01T22:28:20.264Z,7.67
2019-06-01T22:30:49.796Z,7.28
2019-06-01T22:33:21.049Z,6.92
2019-06-01T22:35:50.361Z,9.33
2019-06-01T22:38:19.665Z,5.65
2019-06-01T22:40:48.919Z,6.72
2019-06-01T22:43:32.877Z,5.60
2019-06-01T22:45:49.283Z,8.38
2019-06-01T22:48:18.840Z,6.87
2019-06-01T22:50:48.252Z,7.60
2019-06-01T22:53:17.488Z,5.17
2019-06-01T22:55:46.979Z,3.27
2019-06-01T22:58:16.296Z,8.78
2019-06-01T23:00:45.899Z,5.80
2019-06-01T23:03:18.573Z,5.67
2019-06-01T23:05:47.870Z,5.72
2019-06-01T23:08:17.355Z,5.33
2019-06-01T23:10:46.645Z,6.87
2019-06-01T23:13:15.988Z,4.62
2019-06-01T23:15:45.245Z,11.35
2019-06-01T23:18:14.570Z,5.30
2019-06-01T23:20:43.840Z,5.90
2019-06-01T23:23:13.174Z,5.33
2019-06-01T23:25:42.411Z,6.83
2019-06-01T23:28:11.692Z,3.85
2019-06-01T23:30:41.027Z,5.30
2019-06-01T23:33:10.484Z,7.72
2019-06-01T23:35:39.777Z,5.50
2019-06-01T23:38:08.991Z,6.10
2019-06-01T23:40:38.231Z,6.25
2019-06-01T23:43:07.525Z,9.08
2019-06-01T23:45:36.873Z,7.00
2019-06-01T23:48:06.247Z,8.53
2019-06-01T23:50:35.548Z,6.65
2019-06-01T23:53:13.562Z,5.12
2019-06-01T23:55:39.349Z,6.33
2019-06-01T23:58:08.625Z,7.87
